Alma, Illinois
Current Conditions -  °F | °C
As of 5:15 PM on Friday 31 Oct 2014 (Local Time) from KSLO Reporting Station
Broken Clouds Broken Clouds  
Wind Chill: 38°   Ceiling: 6000
Heat Index: 45°   Visibility: 10mi
Dew Point: 24°   Wind: 18mph
Humidity: 43%   Direction: 340°NNW
Pressure: 30.25"   Gusts: 31mph
Location:  38.72°N, 88.91°W
Report Text: KSLO 312215Z AUTO 34016G27KT 10SM BKN060 07/M05 A3025 RMK AO2 T00731046
Loading
Personal Weather Stations






























Interactive Weather Map New forecast layout! Learn more

10-Day Weather Forecast

Advertisements
Track Severe Weather on mobile